»·PEaware :: N205AF KSAA-KEEO

N205AF :: KSAA-KEEO

FLIGHT INFORMATION

Flight Status: Arrived
Operator: Privately registered:
United States
More flights under this callsign
Pilot: Bryan H. (16252)
Aircraft: MOONEY M-20 201 202 205 220 ATS MSE
(M20P)
More flights by this aircraft type
Origin: KSAA Shively
United States
Destination: KEEO Meeker
United States
More flights between these airports :: More routes between these airports
Route: VFR CKW EKR
File this flight plan on PilotEdge
Remarks: STREAMING ON TWITCH SIMPILOT13
Altitude:
(Current/Filed)
10,500ft
Speed:
(Current/Filed)
160kts
Departed: 14-Apr-18 12:41 PM
Arrived: 14-Apr-18 01:24 PM
Distance/Time
Traveled:
97nm/0:43
Distance/Time
To Go:
Arrived

Flight Plot

Page will automatically refresh every two minutes.

Flight plan parsing failed; only flown route is shown


Map Options




Map Legend


Flown Route
Filed Route
Departure Airport
Arrival Airport
Navaid (VOR, NDB)
Fix

Horizontal Profiles

Position Reports

Time Latitude Longitude Heading Altitude Ground
Speed
14-Apr-18 12:34 41.445235 -106.809481 273 6865ft 0kts
14-Apr-18 12:35 41.445235 -106.809481 273 6865ft 0kts
14-Apr-18 12:36 41.445235 -106.809481 273 6865ft 0kts
14-Apr-18 12:37 41.445235 -106.809481 273 6865ft 0kts
14-Apr-18 12:38 41.445932 -106.811118 272 6863ft 14kts
14-Apr-18 12:39 41.447677 -106.812549 336 6860ft 3kts
14-Apr-18 12:40 41.445980 -106.820077 245 6896ft 72kts
14-Apr-18 12:41 41.438739 -106.846490 263 7488ft 84kts
14-Apr-18 12:42 41.434681 -106.881213 267 8100ft 103kts
14-Apr-18 12:43 41.425777 -106.916158 228 8989ft 100kts
14-Apr-18 12:44 41.406555 -106.944805 237 9606ft 110kts
14-Apr-18 12:45 41.386327 -106.977227 236 10212ft 118kts
14-Apr-18 12:46 41.364465 -107.013769 236 10503ft 144kts
14-Apr-18 12:47 41.338344 -107.060466 237 10501ft 162kts
14-Apr-18 12:48 41.315510 -107.111447 247 10509ft 160kts
14-Apr-18 12:49 41.296711 -107.165149 247 10519ft 160kts
14-Apr-18 12:50 41.276470 -107.219875 252 10220ft 176kts
14-Apr-18 12:51 41.262097 -107.276816 247 10540ft 156kts
14-Apr-18 12:52 41.242936 -107.329058 246 10545ft 159kts
14-Apr-18 12:53 41.223813 -107.381457 247 10545ft 160kts
14-Apr-18 12:54 41.204445 -107.434535 247 10545ft 160kts
14-Apr-18 12:55 41.185102 -107.487567 247 10545ft 160kts
14-Apr-18 12:56 41.166247 -107.539403 247 10545ft 161kts
14-Apr-18 12:57 41.142771 -107.589350 220 10545ft 165kts
14-Apr-18 12:58 41.105596 -107.624806 219 10545ft 165kts
14-Apr-18 12:59 41.068467 -107.659951 221 10546ft 166kts
14-Apr-18 13:00 41.032965 -107.698161 222 10547ft 167kts
14-Apr-18 13:01 40.995821 -107.735405 213 10547ft 170kts
14-Apr-18 13:02 40.951542 -107.759225 200 10547ft 174kts
14-Apr-18 13:03 40.905269 -107.774616 195 10548ft 177kts
14-Apr-18 13:04 40.862408 -107.785963 193 10545ft 179kts
14-Apr-18 13:05 40.813599 -107.779486 165 10545ft 182kts
14-Apr-18 13:06 40.764433 -107.773203 184 10529ft 181kts
14-Apr-18 13:07 40.714840 -107.778718 190 10531ft 179kts
14-Apr-18 13:08 40.664814 -107.788297 191 10461ft 181kts
14-Apr-18 13:09 40.616446 -107.798862 192 10463ft 180kts
14-Apr-18 13:10 40.568418 -107.809757 193 10465ft 179kts
14-Apr-18 13:11 40.519770 -107.811068 160 10468ft 182kts
14-Apr-18 13:12 40.472552 -107.786707 160 10467ft 183kts
14-Apr-18 13:13 40.423637 -107.770193 172 10465ft 182kts
14-Apr-18 13:14 40.373685 -107.762795 182 10464ft 181kts
14-Apr-18 13:15 40.323819 -107.763241 183 10464ft 179kts
14-Apr-18 13:16 40.273959 -107.769654 195 10042ft 183kts
14-Apr-18 13:17 40.226676 -107.793299 208 9547ft 183kts
14-Apr-18 13:18 40.181261 -107.822032 208 9055ft 182kts
14-Apr-18 13:19 40.135398 -107.842869 191 8377ft 162kts
14-Apr-18 13:20 40.097380 -107.852400 213 7359ft 139kts
14-Apr-18 13:21 40.065457 -107.867872 222 6621ft 94kts
14-Apr-18 13:22 40.048437 -107.886358 219 6386ft 52kts
14-Apr-18 13:23 40.041423 -107.892432 127 6386ft 12kts
14-Apr-18 13:24 40.041325 -107.891624 113 6386ft 0kts
14-Apr-18 13:25 40.041325 -107.891624 113 6386ft 0kts
14-Apr-18 13:26 40.041325 -107.891624 113 6386ft 0kts
14-Apr-18 13:27 40.041325 -107.891624 113 6386ft 0kts
14-Apr-18 13:28 40.041325 -107.891624 113 6386ft 0kts
14-Apr-18 13:29 40.041325 -107.891624 113 6386ft 0kts
14-Apr-18 13:30 40.041325 -107.891624 113 6386ft 0kts
14-Apr-18 13:31 40.041325 -107.891624 113 6386ft 0kts
14-Apr-18 13:32 40.041325 -107.891624 113 6386ft 0kts

Navigation Log

Ident Type
Flight plan parsing failed, navigation log unavailable